Time;durP1;ratioP1;P1;durP2;ratioP2;P2;SDS_P1;SDS_P2;PMS_P1;PMS_P2;Temp;Humidity;BMP_temperature;BMP_pressure;BME280_temperature;BME280_humidity;BME280_pressure;Samples;Min_cycle;Max_cycle;Signal;HPM_P1;HPM_P2
2023/06/07 00:00:48;;;;;;;;;;;;;;;24.86;48.74;98147.68;106185;1256;68463;-80
2023/06/07 00:03:16;;;;;;;;;;;;;;;24.86;48.67;98146.45;106160;1256;73297;-81
2023/06/07 00:05:44;;;;;;;;;;;;;;;24.86;48.69;98145.34;105978;1254;60576;-82
2023/06/07 00:08:11;;;;;;;;;;;;;;;24.85;48.77;98141.53;105811;1259;60853;-81
2023/06/07 00:10:38;;;;;;;;;;;;;;;24.85;48.76;98141.96;105823;1259;74547;-81
2023/06/07 00:13:05;;;;;;;;;;;;;;;24.85;48.80;98141.15;106157;1259;67918;-80
2023/06/07 00:15:33;;;;;;;;;;;;;;;24.85;48.81;98136.50;106090;1256;72867;-82
2023/06/07 00:18:01;;;;;;;;;;;;;;;24.85;48.78;98137.05;105905;1255;60418;-81
2023/06/07 00:20:30;;;;;;;;;;;;;;;24.84;48.78;98137.26;106020;1259;60478;-81
2023/06/07 00:22:58;;;;;;;;;;;;;;;24.84;48.77;98133.11;106116;1259;73905;-82
2023/06/07 00:25:25;;;;;;;;;;;;;;;24.84;48.82;98133.45;106078;1259;67747;-80
2023/06/07 00:27:53;;;;;;;;;;;;;;;24.84;48.79;98132.73;106040;1258;71675;-82
2023/06/07 00:30:22;;;;;;;;;;;;;;;24.84;48.74;98130.92;105973;1254;60376;-82
2023/06/07 00:32:49;;;;;;;;;;;;;;;24.84;48.78;98128.77;106111;1256;60568;-82
2023/06/07 00:35:16;;;;;;;;;;;;;;;24.84;48.82;98127.34;106062;1256;73970;-81
2023/06/07 00:37:44;;;;;;;;;;;;;;;24.84;48.75;98125.13;105925;1258;68143;-81
2023/06/07 00:40:11;;;;;;;;;;;;;;;24.83;48.81;98129.53;105840;1259;71723;-81
2023/06/07 00:42:38;;;;;;;;;;;;;;;24.83;48.71;98125.60;106122;1253;60522;-81
2023/06/07 00:45:06;;;;;;;;;;;;;;;24.83;48.81;98127.58;106247;1258;60747;-81
2023/06/07 00:47:33;;;;;;;;;;;;;;;24.83;48.73;98128.17;106100;1259;74358;-81
2023/06/07 00:50:01;;;;;;;;;;;;;;;24.82;48.68;98125.52;106058;1254;68906;-81
2023/06/07 00:52:29;;;;;;;;;;;;;;;24.83;48.76;98125.92;106079;1260;73108;-82
2023/06/07 00:54:58;;;;;;;;;;;;;;;24.83;48.84;98120.48;106113;1254;60553;-81
2023/06/07 00:57:25;;;;;;;;;;;;;;;24.83;48.77;98118.66;109389;1254;59246;-82
2023/06/07 00:59:52;;;;;;;;;;;;;;;24.82;48.80;98117.85;109493;1254;74732;-82
2023/06/07 01:02:19;;;;;;;;;;;;;;;24.83;48.77;98120.27;107268;1257;67636;-81
2023/06/07 01:04:49;;;;;;;;;;;;;;;24.84;48.81;98119.93;106159;1256;73039;-81
2023/06/07 01:07:17;;;;;;;;;;;;;;;24.84;48.78;98115.30;105942;1257;60422;-81
2023/06/07 01:09:44;;;;;;;;;;;;;;;24.85;48.73;98112.13;106065;1258;60872;-81
2023/06/07 01:12:13;;;;;;;;;;;;;;;24.85;48.74;98111.23;106017;1254;73111;-80
2023/06/07 01:14:41;;;;;;;;;;;;;;;24.85;48.72;98108.58;106042;1254;70023;-81
2023/06/07 01:17:12;;;;;;;;;;;;;;;24.85;48.69;98105.11;106025;1254;72277;-81
2023/06/07 01:19:42;;;;;;;;;;;;;;;24.85;48.68;98102.92;106071;1252;60537;-81
2023/06/07 01:22:10;;;;;;;;;;;;;;;24.85;48.73;98100.46;105990;1259;60440;-82
2023/06/07 01:31:00;;;;;;;;;;;;;;;24.87;48.70;98104.33;103086;1292;599207;-82
2023/06/07 01:33:29;;;;;;;;;;;;;;;24.86;48.69;98100.64;105962;1254;61402;-81
2023/06/07 01:35:57;;;;;;;;;;;;;;;24.86;48.80;98102.42;106033;1260;59267;-81
2023/06/07 01:38:25;;;;;;;;;;;;;;;24.87;48.79;98101.23;106472;1260;72571;-80
2023/06/07 01:40:53;;;;;;;;;;;;;;;24.88;48.60;98102.04;108595;1254;68021;-81
2023/06/07 01:43:21;;;;;;;;;;;;;;;24.87;48.62;98096.28;108423;1259;73629;-81
2023/06/07 01:45:50;;;;;;;;;;;;;;;24.87;48.71;98097.73;109435;1251;202669;-81
2023/06/07 01:48:18;;;;;;;;;;;;;;;24.88;48.71;98097.60;109684;1251;59896;-80
2023/06/07 01:50:46;;;;;;;;;;;;;;;24.89;48.67;98095.48;109529;1251;73179;-81
2023/06/07 01:53:15;;;;;;;;;;;;;;;24.91;48.64;98099.42;109639;1251;68902;-81
2023/06/07 01:55:42;;;;;;;;;;;;;;;24.92;48.76;98091.98;109616;1251;72199;-82
2023/06/07 01:58:14;;;;;;;;;;;;;;;24.94;48.65;98094.45;109472;1251;58711;-80
2023/06/07 02:00:51;;;;;;;;;;;;;;;24.95;48.51;98090.65;109675;1251;60076;-81
2023/06/07 02:03:20;;;;;;;;;;;;;;;24.97;48.55;98089.64;109637;1251;73354;-81
2023/06/07 02:05:50;;;;;;;;;;;;;;;24.98;48.52;98092.23;109678;1251;68681;-81
2023/06/07 02:08:33;;;;;;;;;;;;;;;24.99;48.49;98090.45;109653;1251;72791;-81
2023/06/07 02:11:01;;;;;;;;;;;;;;;25.01;48.52;98090.66;109609;1251;61355;-81
2023/06/07 02:13:33;;;;;;;;;;;;;;;25.02;48.49;98090.29;109669;1250;59908;-82
2023/06/07 02:16:04;;;;;;;;;;;;;;;25.03;48.36;98087.41;109549;1251;75087;-81
2023/06/07 02:18:37;;;;;;;;;;;;;;;25.04;48.27;98090.55;109470;1250;68886;-81
2023/06/07 02:21:05;;;;;;;;;;;;;;;25.05;48.36;98089.38;109588;1251;71299;-82
2023/06/07 02:23:33;;;;;;;;;;;;;;;25.06;48.28;98086.83;109517;1251;60283;-82
2023/06/07 02:26:01;;;;;;;;;;;;;;;25.06;48.36;98088.27;109637;1251;59856;-81
2023/06/07 02:28:29;;;;;;;;;;;;;;;25.07;48.18;98087.02;109668;1251;75217;-81
2023/06/07 02:33:54;;;;;;;;;;;;;;;25.10;48.24;98088.08;106400;1289;598573;-82
2023/06/07 02:36:22;;;;;;;;;;;;;;;25.09;48.23;98087.70;108821;1264;58937;-82
2023/06/07 02:39:03;;;;;;;;;;;;;;;25.09;48.05;98085.08;108798;1264;58943;-81
2023/06/07 02:41:31;;;;;;;;;;;;;;;25.10;48.14;98086.30;109061;1258;71753;-81
2023/06/07 02:43:59;;;;;;;;;;;;;;;25.10;48.15;98089.55;105446;1261;68359;-81
2023/06/07 02:46:27;;;;;;;;;;;;;;;25.10;48.09;98083.13;105643;1257;165072;-81
2023/06/07 02:48:55;;;;;;;;;;;;;;;25.10;48.03;98082.61;105673;1256;59234;-81
2023/06/07 02:51:25;;;;;;;;;;;;;;;25.09;48.14;98081.30;105771;1256;62290;-80
2023/06/07 02:53:54;;;;;;;;;;;;;;;25.08;48.16;98084.09;105553;1256;72312;-81
2023/06/07 02:56:24;;;;;;;;;;;;;;;25.07;48.14;98084.30;105679;1260;69032;-81
2023/06/07 02:58:52;;;;;;;;;;;;;;;25.06;48.08;98083.16;105600;1259;73301;-81
2023/06/07 03:01:21;;;;;;;;;;;;;;;25.04;48.09;98083.03;105607;1256;60697;-83
2023/06/07 03:03:52;;;;;;;;;;;;;;;25.03;48.20;98082.68;105636;1263;60464;-82
2023/06/07 03:06:20;;;;;;;;;;;;;;;25.01;48.31;98081.20;105698;1264;72322;-81
2023/06/07 03:08:48;;;;;;;;;;;;;;;25.00;48.28;98084.45;105525;1264;68999;-81
2023/06/07 03:11:20;;;;;;;;;;;;;;;24.99;48.23;98088.89;105749;1258;71664;-80
2023/06/07 03:13:49;;;;;;;;;;;;;;;24.97;48.40;98086.52;105741;1256;60499;-82
2023/06/07 03:16:22;;;;;;;;;;;;;;;24.96;48.34;98083.46;105813;1256;59830;-81
2023/06/07 03:18:55;;;;;;;;;;;;;;;24.94;48.34;98080.71;105691;1258;73194;-81
2023/06/07 03:21:24;;;;;;;;;;;;;;;24.93;48.39;98079.77;105631;1263;69203;-82
2023/06/07 03:23:53;;;;;;;;;;;;;;;24.92;48.40;98081.93;105708;1262;73301;-81
2023/06/07 03:26:21;;;;;;;;;;;;;;;24.91;48.37;98080.20;105512;1259;59755;-81
2023/06/07 03:28:50;;;;;;;;;;;;;;;24.90;48.46;98084.16;105810;1258;60020;-81
2023/06/07 03:31:19;;;;;;;;;;;;;;;24.88;48.41;98079.27;105657;1258;73101;-80
2023/06/07 03:33:57;;;;;;;;;;;;;;;24.87;48.44;98080.83;105644;1256;69263;-80
2023/06/07 03:36:28;;;;;;;;;;;;;;;24.87;48.47;98083.10;105664;1265;71658;-81
2023/06/07 03:38:58;;;;;;;;;;;;;;;24.86;48.40;98081.20;105624;1264;61706;-81
2023/06/07 03:41:27;;;;;;;;;;;;;;;24.86;48.46;98082.17;105653;1256;59808;-81
2023/06/07 03:43:58;;;;;;;;;;;;;;;24.85;48.55;98080.48;105673;1264;73681;-81
2023/06/07 03:46:27;;;;;;;;;;;;;;;24.84;48.48;98078.48;105680;1257;68877;-80
2023/06/07 03:48:54;;;;;;;;;;;;;;;24.84;48.59;98078.19;105654;1257;75798;-87
2023/06/07 03:51:23;;;;;;;;;;;;;;;24.83;48.59;98079.24;106222;1253;60798;-87
2023/06/07 03:53:52;;;;;;;;;;;;;;;24.83;48.42;98084.02;106485;1258;60201;-87
2023/06/07 03:56:21;;;;;;;;;;;;;;;24.82;48.54;98081.36;106228;1258;73370;-83
2023/06/07 03:58:50;;;;;;;;;;;;;;;24.82;48.52;98080.34;106256;1260;68405;-82
2023/06/07 04:01:21;;;;;;;;;;;;;;;24.82;48.59;98082.16;105958;1255;71883;-82
2023/06/07 04:03:49;;;;;;;;;;;;;;;24.82;48.66;98083.80;105859;1253;59644;-84
2023/06/07 04:06:20;;;;;;;;;;;;;;;24.81;48.56;98086.11;106217;1253;61868;-82
2023/06/07 04:08:48;;;;;;;;;;;;;;;24.80;48.66;98083.67;106076;1252;73051;-82
2023/06/07 04:11:16;;;;;;;;;;;;;;;24.80;48.58;98084.60;105911;1258;70617;-83
2023/06/07 04:13:44;;;;;;;;;;;;;;;24.80;48.60;98086.27;105864;1256;73267;-83
2023/06/07 04:16:13;;;;;;;;;;;;;;;24.79;48.67;98084.52;106190;1253;59676;-84
2023/06/07 04:18:42;;;;;;;;;;;;;;;24.79;48.68;98085.83;108219;1252;60410;-83
2023/06/07 04:21:12;;;;;;;;;;;;;;;24.79;48.67;98087.46;106892;1253;72053;-83
2023/06/07 04:23:41;;;;;;;;;;;;;;;24.79;48.60;98083.45;106036;1259;66589;-84
2023/06/07 04:26:10;;;;;;;;;;;;;;;24.79;48.61;98084.52;106066;1253;72839;-83
2023/06/07 04:28:41;;;;;;;;;;;;;;;24.79;48.69;98087.64;106026;1253;60145;-83
2023/06/07 04:31:12;;;;;;;;;;;;;;;24.79;48.86;98082.69;105934;1253;60467;-83
2023/06/07 04:33:41;;;;;;;;;;;;;;;24.79;48.65;98081.21;106162;1253;71854;-84
2023/06/07 04:36:10;;;;;;;;;;;;;;;24.78;48.67;98081.67;109163;1253;68071;-84
2023/06/07 04:38:41;;;;;;;;;;;;;;;24.79;48.74;98078.72;109381;1253;72154;-83
2023/06/07 04:41:32;;;;;;;;;;;;;;;24.79;48.81;98082.11;106688;1254;59703;-82
2023/06/07 04:44:03;;;;;;;;;;;;;;;24.80;48.80;98081.69;105869;1253;59597;-82
2023/06/07 04:46:34;;;;;;;;;;;;;;;24.81;48.73;98085.36;106084;1253;73390;-81
2023/06/07 04:49:02;;;;;;;;;;;;;;;24.81;48.75;98087.05;105919;1253;69389;-83
2023/06/07 04:51:30;;;;;;;;;;;;;;;24.81;48.66;98086.50;105764;1256;71780;-81
2023/06/07 04:54:04;;;;;;;;;;;;;;;24.80;48.74;98087.14;106106;1256;59908;-82
2023/06/07 04:56:37;;;;;;;;;;;;;;;24.80;48.75;98085.70;106612;1253;60249;-83
2023/06/07 04:59:08;;;;;;;;;;;;;;;24.80;48.63;98084.25;106183;1254;72475;-83
2023/06/07 05:01:36;;;;;;;;;;;;;;;24.80;48.73;98087.01;105735;1254;71152;-82
2023/06/07 05:04:07;;;;;;;;;;;;;;;24.79;48.75;98088.90;105933;1255;71474;-83
2023/06/07 05:06:42;;;;;;;;;;;;;;;24.79;48.71;98088.02;105960;1254;60722;-83
2023/06/07 05:09:10;;;;;;;;;;;;;;;24.79;48.76;98088.06;106005;1253;59835;-81
2023/06/07 05:11:39;;;;;;;;;;;;;;;24.77;48.82;98082.56;106061;1261;73195;-85
2023/06/07 05:14:11;;;;;;;;;;;;;;;24.75;49.77;98084.54;106120;1254;68933;-83
2023/06/07 05:16:43;;;;;;;;;;;;;;;24.64;50.78;98083.44;106151;1258;74520;-86
2023/06/07 05:19:19;;;;;;;;;;;;;;;24.48;51.79;98082.56;105972;1260;59647;-86
2023/06/07 05:21:49;;;;;;;;;;;;;;;24.34;52.48;98085.02;106257;1260;59697;-84
2023/06/07 05:24:17;;;;;;;;;;;;;;;24.20;52.97;98084.95;106131;1253;74953;-83
2023/06/07 05:26:45;;;;;;;;;;;;;;;24.07;53.61;98087.52;106163;1260;69621;-83
2023/06/07 05:29:13;;;;;;;;;;;;;;;23.95;53.93;98087.44;106104;1254;72897;-82
2023/06/07 05:31:45;;;;;;;;;;;;;;;23.84;54.40;98085.10;106057;1254;60287;-87
2023/06/07 05:34:16;;;;;;;;;;;;;;;23.74;54.86;98091.58;106344;1254;60197;-83
2023/06/07 05:36:45;;;;;;;;;;;;;;;23.65;55.19;98088.98;107474;1253;73065;-82
2023/06/07 05:39:15;;;;;;;;;;;;;;;23.56;55.52;98086.66;106699;1260;67967;-84
2023/06/07 05:41:46;;;;;;;;;;;;;;;23.49;55.86;98089.59;106698;1253;72775;-87
2023/06/07 05:45:00;;;;;;;;;;;;;;;23.46;56.79;98090.67;103897;1287;616187;-90
2023/06/07 05:47:30;;;;;;;;;;;;;;;23.44;57.24;98093.48;106108;1267;59934;-87
2023/06/07 05:50:25;;;;;;;;;;;;;;;23.43;57.14;98093.77;107016;1267;59543;-89
2023/06/07 05:52:57;;;;;;;;;;;;;;;23.38;57.31;98093.17;106670;1264;72236;-91
2023/06/07 05:55:34;;;;;;;;;;;;;;;23.31;57.55;98094.40;106377;1267;69565;-87
2023/06/07 05:58:07;;;;;;;;;;;;;;;23.24;57.67;98097.83;105798;1266;1280917;-94
2023/06/07 06:00:49;;;;;;;;;;;;;;;23.19;57.92;98099.98;108717;1260;58940;-93
2023/06/07 06:03:27;;;;;;;;;;;;;;;23.12;58.24;98102.79;106778;1261;60408;-94
2023/06/07 06:05:57;;;;;;;;;;;;;;;23.06;58.39;98103.27;106191;1261;71961;-87
2023/06/07 06:08:33;;;;;;;;;;;;;;;23.01;58.57;98104.13;105984;1260;66985;-91
2023/06/07 06:11:19;;;;;;;;;;;;;;;22.95;58.81;98105.33;106291;1266;71701;-94
2023/06/07 06:13:50;;;;;;;;;;;;;;;22.91;58.98;98103.60;107204;1257;59498;-87
2023/06/07 06:16:20;;;;;;;;;;;;;;;22.88;59.17;98101.62;106718;1258;60032;-89
2023/06/07 06:18:50;;;;;;;;;;;;;;;22.84;59.50;98101.33;108448;1259;73370;-84
2023/06/07 06:21:17;;;;;;;;;;;;;;;22.81;59.74;98100.45;106615;1257;68666;-88
2023/06/07 06:23:48;;;;;;;;;;;;;;;22.79;59.74;98102.87;106707;1257;72168;-82
2023/06/07 06:26:22;;;;;;;;;;;;;;;22.78;59.97;98100.66;106919;1257;59758;-86
2023/06/07 06:28:53;;;;;;;;;;;;;;;22.76;59.96;98100.25;107413;1257;59228;-86
2023/06/07 06:31:22;;;;;;;;;;;;;;;22.72;60.31;98100.42;106204;1263;72394;-84
2023/06/07 06:34:15;;;;;;;;;;;;;;;22.71;60.42;98101.67;106158;1263;68086;-87
2023/06/07 06:37:07;;;;;;;;;;;;;;;22.72;60.59;98103.17;106486;1263;72908;-88
2023/06/07 06:39:36;;;;;;;;;;;;;;;22.75;60.50;98102.05;105984;1267;60111;-91
2023/06/07 06:42:04;;;;;;;;;;;;;;;22.79;60.39;98102.27;106077;1263;61194;-89
2023/06/07 06:44:47;;;;;;;;;;;;;;;22.81;60.50;98101.92;106186;1261;73748;-88
2023/06/07 06:47:15;;;;;;;;;;;;;;;22.83;60.48;98099.66;106014;1260;67473;-86
2023/06/07 06:49:44;;;;;;;;;;;;;;;22.86;60.46;98099.70;107323;1261;71955;-91
2023/06/07 06:52:16;;;;;;;;;;;;;;;22.88;60.49;98102.09;106496;1264;60384;-87
2023/06/07 06:55:40;;;;;;;;;;;;;;;22.92;60.44;98105.13;109192;1254;60063;-87
2023/06/07 06:58:16;;;;;;;;;;;;;;;22.97;60.26;98105.09;107783;1257;72263;-89
2023/06/07 07:00:55;;;;;;;;;;;;;;;23.00;60.20;98103.06;106793;1257;68262;-85
2023/06/07 07:03:30;;;;;;;;;;;;;;;23.02;60.36;98104.81;106868;1259;72837;-82
2023/06/07 07:06:35;;;;;;;;;;;;;;;23.04;60.28;98101.52;105950;1264;60111;-86
2023/06/07 07:09:14;;;;;;;;;;;;;;;23.07;60.31;98103.95;107018;1264;60126;-85
2023/06/07 07:11:45;;;;;;;;;;;;;;;23.09;60.41;98105.14;106972;1264;75018;-83
2023/06/07 07:14:14;;;;;;;;;;;;;;;23.12;60.49;98107.20;106610;1263;68750;-87
2023/06/07 07:16:44;;;;;;;;;;;;;;;23.14;60.48;98106.86;107276;1262;73230;-86
2023/06/07 07:19:13;;;;;;;;;;;;;;;23.16;60.42;98111.80;106720;1261;62311;-88
2023/06/07 07:21:43;;;;;;;;;;;;;;;23.18;60.42;98112.27;106437;1262;60126;-88
2023/06/07 07:24:14;;;;;;;;;;;;;;;23.20;60.52;98111.75;107466;1261;71887;-84
2023/06/07 07:26:46;;;;;;;;;;;;;;;23.20;60.74;98110.19;106788;1257;67769;-83
2023/06/07 07:29:22;;;;;;;;;;;;;;;23.21;60.88;98109.36;106875;1259;72340;-81
2023/06/07 07:31:55;;;;;;;;;;;;;;;23.22;60.96;98109.36;106311;1256;60410;-83
2023/06/07 07:34:25;;;;;;;;;;;;;;;23.24;60.92;98103.89;106018;1262;59599;-84
2023/06/07 07:37:02;;;;;;;;;;;;;;;23.24;60.82;98107.17;106069;1259;73831;-80
2023/06/07 07:39:37;;;;;;;;;;;;;;;23.25;60.90;98105.73;106269;1259;68831;-85
2023/06/07 07:42:07;;;;;;;;;;;;;;;23.25;60.68;98107.78;106287;1257;75359;-84
2023/06/07 07:44:40;;;;;;;;;;;;;;;23.23;60.84;98106.19;106272;1257;61695;-82
2023/06/07 07:47:14;;;;;;;;;;;;;;;23.22;60.67;98108.89;106231;1256;59625;-80
2023/06/07 07:49:44;;;;;;;;;;;;;;;23.20;60.76;98107.45;106190;1256;73552;-83
2023/06/07 07:52:14;;;;;;;;;;;;;;;23.20;60.70;98104.45;106164;1260;68742;-82
2023/06/07 07:54:48;;;;;;;;;;;;;;;23.18;60.78;98103.30;106164;1257;72753;-84
2023/06/07 07:57:34;;;;;;;;;;;;;;;23.18;60.90;98107.40;106076;1256;59712;-83
2023/06/07 08:00:10;;;;;;;;;;;;;;;23.18;60.76;98111.98;106212;1262;59782;-83
2023/06/07 08:02:51;;;;;;;;;;;;;;;23.18;60.83;98110.55;108277;1257;72879;-82
2023/06/07 08:05:23;;;;;;;;;;;;;;;23.16;60.94;98112.00;108914;1257;67855;-83
2023/06/07 08:08:00;;;;;;;;;;;;;;;23.16;60.94;98110.86;107131;1260;72038;-81
2023/06/07 08:10:34;;;;;;;;;;;;;;;23.17;60.90;98112.81;106094;1257;60748;-83
2023/06/07 08:13:44;;;;;;;;;;;;;;;23.19;61.04;98118.25;103059;1293;615490;-83
2023/06/07 08:16:17;;;;;;;;;;;;;;;23.16;61.08;98121.27;105647;1270;59803;-84
2023/06/07 08:18:50;;;;;;;;;;;;;;;23.17;61.00;98120.98;105433;1270;60155;-85
2023/06/07 08:21:20;;;;;;;;;;;;;;;23.18;60.93;98118.17;105582;1270;71835;-83
2023/06/07 08:30:09;;;;;;;;;;;;;;;23.22;61.54;98120.33;105897;1290;599109;-86
2023/06/07 08:32:38;;;;;;;;;;;;;;;23.22;61.69;98116.86;108446;1267;59100;-86
2023/06/07 08:35:14;;;;;;;;;;;;;;;23.24;61.85;98114.46;109087;1259;61328;-89
2023/06/07 08:37:48;;;;;;;;;;;;;;;23.25;61.80;98116.52;108964;1257;59156;-87
2023/06/07 08:44:46;;;;;;;;;;;;;;;23.27;61.96;98115.90;106782;1258;465589;-86
2023/06/07 08:48:06;;;;;;;;;;;;;;;23.27;61.96;98118.60;106459;1259;61046;-88
2023/06/07 08:50:42;;;;;;;;;;;;;;;23.27;62.16;98120.25;106795;1265;62009;-90
2023/06/07 08:53:44;;;;;;;;;;;;;;;23.27;62.07;98121.21;107352;1259;73735;-86
2023/06/07 08:56:16;;;;;;;;;;;;;;;23.28;62.29;98119.29;106458;1260;67102;-86
2023/06/07 08:58:49;;;;;;;;;;;;;;;23.28;62.07;98117.52;106805;1260;72842;-86
2023/06/07 09:01:30;;;;;;;;;;;;;;;23.28;62.17;98116.64;106506;1265;60733;-89
2023/06/07 09:05:06;;;;;;;;;;;;;;;23.26;62.03;98121.08;107184;1264;63144;-90
2023/06/07 09:11:41;;;;;;;;;;;;;;;23.25;62.10;98118.19;108940;1261;67775;-85
2023/06/07 09:14:17;;;;;;;;;;;;;;;23.24;62.07;98119.32;108904;1263;71611;-83
2023/06/07 09:16:53;;;;;;;;;;;;;;;23.24;62.24;98114.98;108794;1262;59822;-86
2023/06/07 09:19:51;;;;;;;;;;;;;;;23.24;62.27;98116.08;109201;1256;60086;-89
2023/06/07 09:22:51;;;;;;;;;;;;;;;23.24;62.25;98118.35;109210;1256;72094;-88
2023/06/07 09:25:26;;;;;;;;;;;;;;;23.23;62.21;98116.25;109193;1257;69580;-88
2023/06/07 09:28:00;;;;;;;;;;;;;;;23.24;62.41;98122.48;109148;1257;61989;-88
2023/06/07 09:30:54;;;;;;;;;;;;;;;23.25;62.32;98121.63;109379;1257;58872;-86
2023/06/07 09:33:28;;;;;;;;;;;;;;;23.26;62.18;98123.65;109287;1260;61223;-85
2023/06/07 09:36:06;;;;;;;;;;;;;;;23.26;62.15;98122.59;109407;1254;71847;-84
2023/06/07 09:38:34;;;;;;;;;;;;;;;23.26;62.16;98118.42;109508;1254;71154;-84
2023/06/07 09:41:03;;;;;;;;;;;;;;;23.25;62.12;98119.39;109313;1254;73947;-84
2023/06/07 09:43:50;;;;;;;;;;;;;;;23.26;62.13;98119.73;109399;1254;60118;-82
2023/06/07 09:46:19;;;;;;;;;;;;;;;23.26;61.97;98121.55;109345;1254;60843;-85
2023/06/07 09:48:50;;;;;;;;;;;;;;;23.25;61.96;98121.65;109248;1254;73099;-83
2023/06/07 09:51:19;;;;;;;;;;;;;;;23.24;62.11;98122.19;109445;1254;69264;-84
2023/06/07 09:53:54;;;;;;;;;;;;;;;23.24;61.95;98125.23;109239;1254;75163;-86
2023/06/07 09:56:22;;;;;;;;;;;;;;;23.24;61.96;98124.08;109354;1254;62550;-87
2023/06/07 09:59:10;;;;;;;;;;;;;;;23.24;61.93;98121.77;109572;1254;61994;-88
2023/06/07 10:01:52;;;;;;;;;;;;;;;23.25;62.09;98120.86;109489;1254;72470;-83
2023/06/07 10:04:20;;;;;;;;;;;;;;;23.27;61.97;98116.41;109480;1254;68650;-86
2023/06/07 10:06:54;;;;;;;;;;;;;;;23.29;61.95;98123.52;109316;1254;72847;-85
2023/06/07 10:09:24;;;;;;;;;;;;;;;23.31;61.77;98118.90;109163;1254;59129;-82
2023/06/07 10:11:55;;;;;;;;;;;;;;;23.33;61.85;98119.34;109281;1254;60797;-83
2023/06/07 10:14:32;;;;;;;;;;;;;;;23.35;61.88;98118.77;109349;1254;71705;-84
2023/06/07 10:17:07;;;;;;;;;;;;;;;23.36;62.03;98118.91;109412;1254;68645;-85
2023/06/07 10:19:48;;;;;;;;;;;;;;;23.37;61.82;98120.41;109366;1254;73534;-85
2023/06/07 10:22:23;;;;;;;;;;;;;;;23.38;61.90;98115.39;109345;1254;59171;-84
2023/06/07 10:25:02;;;;;;;;;;;;;;;23.39;61.91;98119.86;109349;1254;60786;-85
2023/06/07 10:27:35;;;;;;;;;;;;;;;23.40;62.03;98119.77;109300;1254;73091;-83
2023/06/07 10:30:14;;;;;;;;;;;;;;;23.41;62.02;98122.92;109469;1254;70604;-84
2023/06/07 10:32:46;;;;;;;;;;;;;;;23.41;62.09;98122.16;109416;1254;72505;-84
2023/06/07 10:35:19;;;;;;;;;;;;;;;23.42;62.07;98124.20;109290;1254;58701;-84
2023/06/07 10:37:53;;;;;;;;;;;;;;;23.43;62.40;98121.92;109312;1254;62042;-84
2023/06/07 10:40:26;;;;;;;;;;;;;;;23.44;62.33;98119.96;109452;1254;71559;-90
2023/06/07 10:42:58;;;;;;;;;;;;;;;23.44;62.52;98114.83;109544;1254;70830;-89
2023/06/07 10:45:32;;;;;;;;;;;;;;;23.44;62.88;98114.40;109230;1255;72848;-88
2023/06/07 10:48:26;;;;;;;;;;;;;;;23.44;62.90;98114.95;109587;1254;59656;-86
2023/06/07 10:50:57;;;;;;;;;;;;;;;23.44;63.08;98110.45;109511;1257;58698;-89
2023/06/07 10:54:08;;;;;;;;;;;;;;;23.45;63.07;98110.15;109400;1253;74302;-88
2023/06/07 10:56:41;;;;;;;;;;;;;;;23.45;63.20;98106.27;109148;1257;68826;-94
2023/06/07 10:59:21;;;;;;;;;;;;;;;23.44;63.30;98102.77;109153;1257;71055;-88
2023/06/07 11:01:54;;;;;;;;;;;;;;;23.44;63.43;98107.12;109339;1254;59287;-90
2023/06/07 11:04:54;;;;;;;;;;;;;;;23.45;63.67;98110.61;109574;1251;62892;-86
2023/06/07 11:07:35;;;;;;;;;;;;;;;23.47;63.50;98109.36;109615;1252;72062;-85
2023/06/07 11:10:26;;;;;;;;;;;;;;;23.47;63.60;98107.80;109648;1251;68876;-88
2023/06/07 11:12:59;;;;;;;;;;;;;;;23.47;63.55;98106.48;109489;1254;74790;-88
2023/06/07 11:15:30;;;;;;;;;;;;;;;23.49;63.66;98103.89;109581;1252;60136;-85
2023/06/07 11:18:05;;;;;;;;;;;;;;;23.50;63.82;98104.66;109573;1253;60848;-85
2023/06/07 11:20:45;;;;;;;;;;;;;;;23.50;63.59;98111.37;109559;1254;74284;-85
2023/06/07 11:23:35;;;;;;;;;;;;;;;23.50;63.73;98116.30;109671;1251;70536;-85
2023/06/07 11:26:19;;;;;;;;;;;;;;;23.49;63.57;98116.42;109769;1257;70878;-87
2023/06/07 11:30:46;;;;;;;;;;;;;;;23.49;63.39;98113.17;104122;1292;611462;-86
2023/06/07 11:33:21;;;;;;;;;;;;;;;23.46;63.43;98113.48;106227;1272;60585;-88
2023/06/07 11:35:54;;;;;;;;;;;;;;;23.45;63.46;98113.05;106504;1266;60188;-85
2023/06/07 11:38:26;;;;;;;;;;;;;;;23.44;63.51;98113.59;106616;1259;71443;-86
2023/06/07 11:40:57;;;;;;;;;;;;;;;23.43;63.65;98111.78;106410;1262;69439;-86
2023/06/07 11:43:31;;;;;;;;;;;;;;;23.43;63.71;98111.89;106066;1257;279425;-87
2023/06/07 11:46:07;;;;;;;;;;;;;;;23.42;63.55;98114.79;106746;1256;59389;-86
2023/06/07 11:48:54;;;;;;;;;;;;;;;23.40;63.72;98112.25;106721;1253;60953;-87
2023/06/07 11:51:28;;;;;;;;;;;;;;;23.39;63.81;98111.83;106451;1259;72406;-90
2023/06/07 11:54:08;;;;;;;;;;;;;;;23.38;64.07;98115.61;106229;1255;67177;-86
2023/06/07 11:56:37;;;;;;;;;;;;;;;23.38;64.05;98118.20;106528;1253;72713;-90
2023/06/07 11:59:08;;;;;;;;;;;;;;;23.37;64.14;98117.39;106222;1255;59657;-88
2023/06/07 12:01:40;;;;;;;;;;;;;;;23.36;64.10;98114.23;106544;1259;60366;-85
2023/06/07 12:04:11;;;;;;;;;;;;;;;23.35;64.22;98109.97;106751;1253;72760;-83
2023/06/07 12:06:46;;;;;;;;;;;;;;;23.34;64.24;98108.42;108894;1254;67873;-86
2023/06/07 12:09:22;;;;;;;;;;;;;;;23.34;64.40;98106.11;109142;1254;72347;-80
2023/06/07 12:11:50;;;;;;;;;;;;;;;23.33;64.59;98100.75;107142;1254;60786;-82
2023/06/07 12:14:30;;;;;;;;;;;;;;;23.33;64.74;98105.13;106616;1254;60864;-84
2023/06/07 12:16:59;;;;;;;;;;;;;;;23.33;64.71;98100.74;107432;1254;72757;-86
2023/06/07 12:19:28;;;;;;;;;;;;;;;23.32;64.83;98101.34;107615;1254;70854;-85
2023/06/07 12:22:04;;;;;;;;;;;;;;;23.32;64.97;98101.83;108434;1254;71596;-84
2023/06/07 12:24:37;;;;;;;;;;;;;;;23.30;65.03;98098.10;108781;1253;59865;-83
2023/06/07 12:27:12;;;;;;;;;;;;;;;23.31;64.92;98094.11;107842;1254;61025;-83
2023/06/07 12:29:42;;;;;;;;;;;;;;;23.31;64.95;98099.34;107544;1259;73340;-86
2023/06/07 12:32:11;;;;;;;;;;;;;;;23.31;65.12;98101.15;106934;1254;70061;-84
2023/06/07 12:34:44;;;;;;;;;;;;;;;23.31;65.09;98100.48;106451;1254;73538;-85
2023/06/07 12:37:14;;;;;;;;;;;;;;;23.31;65.19;98098.06;107026;1254;59757;-86
2023/06/07 12:39:51;;;;;;;;;;;;;;;23.31;65.16;98099.37;107014;1253;60327;-82
2023/06/07 12:42:19;;;;;;;;;;;;;;;23.31;65.15;98095.88;107340;1253;73735;-87
2023/06/07 12:44:54;;;;;;;;;;;;;;;23.31;65.19;98099.77;107692;1253;69808;-87
2023/06/07 12:47:25;;;;;;;;;;;;;;;23.30;65.04;98093.44;108371;1253;74207;-86
2023/06/07 12:50:00;;;;;;;;;;;;;;;23.30;65.15;98092.33;107565;1254;61344;-85
2023/06/07 12:52:33;;;;;;;;;;;;;;;23.30;65.24;98096.84;107662;1253;60071;-85
2023/06/07 12:55:00;;;;;;;;;;;;;;;23.31;65.16;98092.21;107851;1254;71250;-86
2023/06/07 12:57:31;;;;;;;;;;;;;;;23.32;65.31;98092.64;108682;1254;67670;-84
2023/06/07 13:00:04;;;;;;;;;;;;;;;23.32;65.38;98087.89;107748;1256;73371;-87
2023/06/07 13:02:40;;;;;;;;;;;;;;;23.32;65.51;98085.44;107756;1254;59639;-85
2023/06/07 13:05:14;;;;;;;;;;;;;;;23.33;65.44;98089.02;107515;1254;60703;-84
2023/06/07 13:07:47;;;;;;;;;;;;;;;23.33;65.50;98085.70;106472;1254;75227;-82
2023/06/07 13:10:18;;;;;;;;;;;;;;;23.32;65.62;98081.11;106596;1257;66856;-83
2023/06/07 13:12:51;;;;;;;;;;;;;;;23.32;65.60;98081.17;106693;1253;72827;-81
2023/06/07 13:15:19;;;;;;;;;;;;;;;23.30;65.72;98079.39;105983;1262;60721;-87
2023/06/07 13:17:51;;;;;;;;;;;;;;;23.29;65.59;98080.01;106694;1259;61525;-91
2023/06/07 13:20:22;;;;;;;;;;;;;;;23.29;65.68;98081.06;106441;1260;73822;-89
2023/06/07 13:22:54;;;;;;;;;;;;;;;23.29;65.66;98084.40;106943;1254;71189;-84
2023/06/07 13:25:28;;;;;;;;;;;;;;;23.28;65.68;98078.83;106833;1257;74609;-85
2023/06/07 13:28:55;;;;;;;;;;;;;;;23.30;65.59;98074.98;103499;1294;612226;-83
2023/06/07 13:31:27;;;;;;;;;;;;;;;23.26;65.63;98071.09;105526;1272;59668;-82
2023/06/07 13:34:01;;;;;;;;;;;;;;;23.25;65.78;98074.36;105163;1270;59380;-84